Airfield :
LOGIN :

Register | Disclaimer

   EN    FR    IT 

 










Legend :    VFR   Marginal VFR   IFR   Intensive IFR   Very Intensive IFR
Visi :
Ceiling :
>= 8 km
>= 3000ft
5 to 8 km
1000 to 3000 ft
1500m to 5 km
500 to 1000 ft
800 to 1500m
200 to 500 ft
< 800m
< 200 ft
Symbols :   Thunderstorms  Fog  Heavy snow  Heavy precipitations  Wind > 20 kt
SIGMETs :     Misc.  Thunderstorms  Icing  Turbulence  Mountain Waves  Volcanic Ashes






- Airport Elevation : 49 ft
- IATA code : GLZ


EHGR - Gilze-Rijen Airbase

CURRENT METAR :
  • 290559Z AUTO 23007KT 200V270 9999 -SHRA +DZ FEW006 SCT008 BKN010 15/14 Q1009 GRN

EXPIRED METARs :
  • 290555Z AUTO 24008KT 210V270 9999 +DZ FEW006 SCT008 BKN010 14/14 Q1009 GRN
  • 290540Z AUTO 22009KT 180V250 5000 -RA FEW006 SCT011 BKN013 15/14 Q1009 GRN
  • 290525Z AUTO 22008KT 170V250 9999 FEW009 SCT011 BKN014 15/14 Q1009 GRN
  • 290455Z AUTO 21008KT 180V250 9999 FEW011 SCT013 BKN015 15/14 Q1009 REDZ GRN
  • 290429Z AUTO 21009KT 170V260 5000 DZ FEW009 SCT011 BKN014 15/14 Q1009 GRN
  • 290355Z AUTO 21008KT 190V250 9999 FEW006 SCT008 BKN010 15/14 Q1009 GRN
  • 290343Z AUTO 21008KT 180V250 9999 FEW009 BKN015 OVC020 15/14 Q1009 WHT
  • 290325Z AUTO 21008KT 150V250 9999 FEW007 BKN013 OVC015 15/14 Q1009 GRN
  • 290304Z AUTO 21009KT 170V250 6000 BR FEW006 SCT010 BKN012 15/14 Q1009 GRN
  • 290255Z AUTO 21009KT 160V260 8000 -DZ FEW006 SCT011 BKN020 15/14 Q1009 REDZ GRN
  • 290244Z AUTO 21009KT 180V250 4200 +DZRA FEW005 SCT006 BKN009 15/14 Q1009 YLO
  • 290225Z AUTO 21009KT 180V260 3300 +DZRA FEW005 SCT009 BKN010 FEW015CB 15/14 Q1009 RERA REDZ YLO
  • 290208Z AUTO 20009KT 170V250 8000 SHRA FEW004 SCT006 BKN009 FEW015CB 15/14 Q1009 YLO
  • 290155Z AUTO 21008KT 180V250 3400 SHRA +DZ FEW004 SCT006 BKN014 FEW015CB 15/14 Q1010 YLO
  • 290142Z AUTO 21008KT 170V270 4100 DZ BKN019 BKN022 OVC041 15/14 Q1010 GRN
  • 290134Z AUTO 21008KT 170V270 4500 DZ FEW009 BKN021 BKN034 15/14 Q1010 GRN
  • 290103Z AUTO 24010KT 210V270 3600 +DZ FEW007 SCT018 BKN027 14/14 Q1010 YLO

TAF COR TAF EHGR
Valid from the 29 at 05:00 until the 29 at 17:00 UTC


290446Z 2905/2917 22010KT 9999 FEW008 BKN012
TEMPO 2905/2906 3000 RA SHRA FEW006 SCT008 BKN012 SCT020CB
BECMG 2906/2908 FEW015 SCT020
TEMPO 2908/2917 26015G25KT 4500 SHRA SCT015 SCT025CB
BECMG 2915/2917 27008KT



MET'MAP, your aeronautical weather chart ! - Copyright ORBIFLY December 2007 - Disclaimer

ORBIFLY MET'MAP TEAM :

Programming & Development : Alexandra Zaïnal
Original concept : Baudouin d'Aumeries
Technical & hardware support : Manuel Goepfert
Assistance : Marc-Olivier Méhu




SOURCES & CREDITS :

   NOAA